PWSweather.com
Personal Weather Stations
Station Observations
WESTON01
WestonSuperMareGB BS22 8RT

WestonSuperMareGB BS22 8RT

Lat: 51.351508, Lon: -2.933373

Elevation: 15

Station Type: Fine Offset WH1080

http://www.westonweather.co.uk

Latest ConditionsUpdated 1:45:00 AM GMT Thursday, Jan 17, 2019
Currently Today's Max Today's Min Today's Average
Temperature 39.1°F3.9°C 40.5°F4.7°C 39.1°F3.9°C 40.0°F4.4°C
Dew Point 35.6°F2.0°C 37.6°F3.1°C 35.6°F2.0°C 36.7°F2.6°C
Winds 7.1 mph NW11.4 kmh NW 8.2 mph -13.2 kmh - - 6.7 mph 10.8 kmh
Wind Gusts 8.6 mph13.8 kmh 13.1 mph21.1 kmh - -
Humidity 87% 89% 87% 88%
Pressure 29.62 in1003.0 mb 29.62 in1003.0 mb 29.56 in1001.0 mb -
Hour Temp Dew Point Humidity Winds Wind Gusts Pressure Precip Precip Rate Daily Precip Total
01:45 AM 39.1°F3.9°C 35.6°F2.0°C 87% 7.1 mph NW11.4 kmh NW 8.6 mph13.8 kmh 29.62 in1003.0 mb 0.00 in0.0 mm 0.00 in0.0 mm 0.00 in0.0 mm
01:40 AM 39.3°F4.1°C 35.7°F2.1°C 87% 7.6 mph NW12.2 kmh NW 12.2 mph19.6 kmh 29.62 in1003.0 mb 0.00 in0.0 mm 0.00 in0.0 mm 0.00 in0.0 mm
01:35 AM 39.3°F4.1°C 35.7°F2.1°C 87% 8.2 mph NW13.2 kmh NW 12.2 mph19.6 kmh 29.62 in1003.0 mb 0.00 in0.0 mm 0.00 in0.0 mm 0.00 in0.0 mm
01:30 AM 39.5°F4.2°C 36.2°F2.3°C 88% 7.1 mph NNW11.4 kmh NNW 11.6 mph18.7 kmh 29.62 in1003.0 mb 0.00 in0.0 mm 0.00 in0.0 mm 0.00 in0.0 mm
01:25 AM 39.7°F4.3°C 36.4°F2.4°C 88% 6.0 mph NW9.7 kmh NW 7.7 mph12.4 kmh 29.62 in1003.0 mb 0.00 in0.0 mm 0.00 in0.0 mm 0.00 in0.0 mm
01:20 AM 39.7°F4.3°C 36.4°F2.4°C 88% 5.9 mph NW9.5 kmh NW 8.3 mph13.4 kmh 29.62 in1003.0 mb 0.00 in0.0 mm 0.00 in0.0 mm 0.00 in0.0 mm
01:15 AM 39.7°F4.3°C 36.4°F2.4°C 88% 6.7 mph NW10.8 kmh NW 10.4 mph16.7 kmh 29.62 in1003.0 mb 0.00 in0.0 mm 0.00 in0.0 mm 0.00 in0.0 mm
01:10 AM 39.8°F4.3°C 36.3°F2.4°C 87% 7.3 mph NNW11.7 kmh NNW 10.4 mph16.7 kmh 29.62 in1003.0 mb 0.00 in0.0 mm 0.00 in0.0 mm 0.00 in0.0 mm
01:05 AM 39.8°F4.3°C 36.3°F2.4°C 87% 6.9 mph NW11.1 kmh NW 9.8 mph15.8 kmh 29.62 in1003.0 mb 0.00 in0.0 mm 0.00 in0.0 mm 0.00 in0.0 mm
01:00 AM 40.0°F4.4°C 36.7°F2.6°C 88% 7.5 mph WNW12.1 kmh WNW 12.8 mph20.6 kmh 29.62 in1003.0 mb 0.00 in0.0 mm 0.00 in0.0 mm 0.00 in0.0 mm
12:55 AM 40.0°F4.4°C 36.7°F2.6°C 88% 7.8 mph NW12.6 kmh NW 12.8 mph20.6 kmh 29.62 in1003.0 mb 0.00 in0.0 mm 0.00 in0.0 mm 0.00 in0.0 mm
12:50 AM 40.0°F4.4°C 36.7°F2.6°C 88% 7.6 mph NW12.2 kmh NW 12.8 mph20.6 kmh 29.62 in1003.0 mb 0.00 in0.0 mm 0.00 in0.0 mm 0.00 in0.0 mm
12:45 AM 40.2°F4.6°C 36.9°F2.7°C 88% 8.2 mph NW13.2 kmh NW 13.1 mph21.1 kmh 29.62 in1003.0 mb 0.00 in0.0 mm 0.00 in0.0 mm 0.00 in0.0 mm
12:40 AM 40.2°F4.6°C 36.9°F2.7°C 88% 7.1 mph NNW11.4 kmh NNW 13.1 mph21.1 kmh 29.62 in1003.0 mb 0.00 in0.0 mm 0.00 in0.0 mm 0.00 in0.0 mm
12:35 AM 40.4°F4.7°C 37.1°F2.8°C 88% 4.8 mph NW7.7 kmh NW 8.3 mph13.4 kmh 29.62 in1003.0 mb 0.00 in0.0 mm 0.00 in0.0 mm 0.00 in0.0 mm
12:30 AM 40.4°F4.7°C 37.1°F2.8°C 88% 5.6 mph NW9.0 kmh NW 8.6 mph13.8 kmh 29.59 in1002.0 mb 0.00 in0.0 mm 0.00 in0.0 mm 0.00 in0.0 mm
12:25 AM 40.4°F4.7°C 37.1°F2.8°C 88% 6.6 mph NW10.6 kmh NW 9.5 mph15.3 kmh 29.59 in1002.0 mb 0.00 in0.0 mm 0.00 in0.0 mm 0.00 in0.0 mm
12:20 AM 40.4°F4.7°C 37.4°F3.0°C 89% 5.9 mph NW9.5 kmh NW 9.5 mph15.3 kmh 29.59 in1002.0 mb 0.00 in0.0 mm 0.00 in0.0 mm 0.00 in0.0 mm
12:15 AM 40.5°F4.7°C 37.6°F3.1°C 89% 5.5 mph NW8.9 kmh NW 10.1 mph16.3 kmh 29.59 in1002.0 mb 0.00 in0.0 mm 0.00 in0.0 mm 0.00 in0.0 mm
12:10 AM 40.5°F4.7°C 37.6°F3.1°C 89% 5.7 mph NW9.2 kmh NW 10.1 mph16.3 kmh 29.59 in1002.0 mb 0.00 in0.0 mm 0.00 in0.0 mm 0.00 in0.0 mm
12:05 AM 40.5°F4.7°C 37.6°F3.1°C 89% 6.5 mph NW10.5 kmh NW 10.1 mph16.3 kmh 29.59 in1002.0 mb 0.00 in0.0 mm 0.00 in0.0 mm 0.00 in0.0 mm
12:00 AM 40.4°F4.7°C 37.4°F3.0°C 89% 6.3 mph NW10.1 kmh NW 9.5 mph15.3 kmh 29.56 in1001.0 mb 0.00 in0.0 mm 0.00 in0.0 mm 0.00 in0.0 mm